Time;durP1;ratioP1;P1;durP2;ratioP2;P2;SDS_P1;SDS_P2;PMS_P1;PMS_P2;Temp;Humidity;BMP_temperature;BMP_pressure;BME280_temperature;BME280_humidity;BME280_pressure;Samples;Min_cycle;Max_cycle;Signal;HPM_P1;HPM_P2
2022/02/11 00:02:17;;;;;;;5.18;4.03;;;7.20;99.90;;;;;;4929835;29;20489;-77
2022/02/11 00:07:16;;;;;;;6.20;4.80;;;7.10;99.90;;;;;;4930921;29;20032;-79
2022/02/11 00:09:42;;;;;;;6.68;4.85;;;7.10;99.90;;;;;;4928132;29;20095;-78
2022/02/11 00:12:08;;;;;;;5.45;4.35;;;7.10;99.90;;;;;;4931332;29;20043;-80
2022/02/11 00:14:42;;;;;;;10.10;5.57;;;7.10;99.90;;;;;;4926279;29;20034;-79
2022/02/11 00:17:08;;;;;;;9.13;4.82;;;7.10;99.90;;;;;;4933498;29;20024;-78
2022/02/11 00:19:34;;;;;;;6.25;4.70;;;7.10;99.90;;;;;;4940015;29;20447;-79
2022/02/11 00:21:59;;;;;;;6.30;4.78;;;7.10;99.90;;;;;;4930899;29;20030;-78
2022/02/11 00:24:25;;;;;;;6.55;4.80;;;7.00;99.90;;;;;;4936838;29;20027;-77
2022/02/11 00:27:17;;;;;;;8.15;4.50;;;7.10;99.90;;;;;;4926867;29;20028;-79
2022/02/11 00:30:06;;;;;;;6.35;4.63;;;7.10;99.90;;;;;;4935185;29;20027;-79
2022/02/11 00:33:04;;;;;;;5.03;4.25;;;7.10;99.90;;;;;;4933122;29;20481;-77
2022/02/11 00:35:45;;;;;;;8.57;5.22;;;7.10;99.90;;;;;;4932634;29;20390;-77
2022/02/11 00:38:14;;;;;;;6.78;5.25;;;7.10;99.90;;;;;;4924224;29;20040;-77
2022/02/11 00:46:17;;;;;;;8.27;5.43;;;7.20;99.90;;;;;;4926826;29;20031;-79
2022/02/11 01:04:46;;;;;;;7.28;5.45;;;7.10;99.90;;;;;;4933550;29;20047;-77
2022/02/11 01:07:11;;;;;;;7.43;4.85;;;7.10;99.90;;;;;;4932132;29;20509;-77
2022/02/11 01:09:39;;;;;;;5.80;5.05;;;7.10;99.90;;;;;;4934616;29;20031;-79
2022/02/11 01:12:05;;;;;;;5.55;4.65;;;7.10;99.90;;;;;;4934491;29;20413;-78
2022/02/11 01:14:38;;;;;;;7.13;4.50;;;7.00;99.90;;;;;;4927444;29;20055;-78
2022/02/11 01:17:54;;;;;;;6.57;4.95;;;7.00;99.90;;;;;;4927052;29;20030;-79
2022/02/11 01:20:10;;;;;;;6.03;4.50;;;7.00;99.90;;;;;;4919158;29;20553;-78
2022/02/11 01:30:56;;;;;;;6.55;5.18;;;6.90;99.90;;;;;;4936243;29;20051;-77
2022/02/11 01:36:07;;;;;;;5.30;4.80;;;6.90;99.90;;;;;;4928226;29;20427;-78
2022/02/11 01:54:46;;;;;;;7.07;4.00;;;7.00;99.90;;;;;;4935258;29;20461;-77
2022/02/11 02:11:27;;;;;;;4.78;3.10;;;6.90;99.90;;;;;;4933955;29;20066;-78
2022/02/11 02:35:16;;;;;;;4.65;3.60;;;6.60;99.90;;;;;;4928466;29;20507;-77
2022/02/11 02:59:16;;;;;;;4.35;3.63;;;6.50;99.90;;;;;;4939022;29;20082;-77
2022/02/11 03:01:51;;;;;;;4.75;3.80;;;6.40;99.90;;;;;;4927278;29;20020;-77
2022/02/11 03:31:30;;;;;;;7.53;4.45;;;5.90;99.90;;;;;;4931340;29;20047;-78
2022/02/11 04:55:23;;;;;;;4.25;3.13;;;3.20;99.90;;;;;;4936355;29;20082;-77
2022/02/11 05:00:33;;;;;;;3.60;2.92;;;3.20;99.90;;;;;;4935405;29;20034;-78
2022/02/11 05:02:59;;;;;;;2.83;2.63;;;3.10;99.90;;;;;;4936264;29;20408;-78
2022/02/11 05:05:25;;;;;;;2.80;2.58;;;3.10;99.90;;;;;;4929713;29;20428;-77
2022/02/11 05:07:51;;;;;;;2.60;2.40;;;3.20;99.90;;;;;;4935512;29;20028;-76
2022/02/11 05:10:16;;;;;;;2.45;2.25;;;3.10;99.90;;;;;;4935844;29;20038;-77
2022/02/11 05:12:43;;;;;;;2.72;2.53;;;3.00;99.90;;;;;;4926151;29;20390;-78
2022/02/11 05:15:10;;;;;;;3.45;3.15;;;3.10;99.90;;;;;;4937782;29;20549;-77
2022/02/11 05:17:40;;;;;;;3.33;3.13;;;3.10;99.90;;;;;;4924599;29;20038;-78
2022/02/11 05:20:08;;;;;;;3.58;3.28;;;3.20;99.90;;;;;;4925434;29;20477;-76
2022/02/11 05:22:34;;;;;;;3.33;3.03;;;3.20;99.90;;;;;;4935023;29;20024;-78
2022/02/11 05:25:00;;;;;;;3.55;3.15;;;3.20;99.90;;;;;;4924461;29;20374;-78
2022/02/11 05:27:26;;;;;;;3.13;2.83;;;3.10;99.90;;;;;;4931528;29;20134;-78
2022/02/11 05:29:52;;;;;;;3.58;3.28;;;3.20;99.90;;;;;;4930040;29;20051;-78
2022/02/11 05:32:18;;;;;;;3.13;2.92;;;3.10;99.90;;;;;;4935354;29;20032;-78
2022/02/11 05:34:44;;;;;;;3.58;3.28;;;3.20;99.90;;;;;;4927904;29;20020;-76
2022/02/11 05:37:09;;;;;;;3.22;2.92;;;3.20;99.90;;;;;;4927355;29;20505;-78
2022/02/11 05:39:35;;;;;;;3.20;2.90;;;3.20;99.90;;;;;;4932991;29;20056;-77
2022/02/11 05:42:00;;;;;;;2.88;2.67;;;3.20;99.90;;;;;;4934805;29;20461;-78
2022/02/11 05:44:26;;;;;;;3.03;2.65;;;3.20;99.90;;;;;;4930792;29;20492;-78
2022/02/11 05:46:52;;;;;;;3.10;2.83;;;3.20;99.90;;;;;;4933254;29;20476;-77
2022/02/11 05:49:17;;;;;;;3.50;3.17;;;3.20;99.90;;;;;;4933058;29;20420;-78
2022/02/11 05:51:44;;;;;;;3.38;2.70;;;3.20;99.90;;;;;;4934661;29;20111;-77
2022/02/11 05:54:10;;;;;;;2.90;2.60;;;3.10;99.90;;;;;;4933928;29;20023;-78
2022/02/11 05:56:35;;;;;;;3.00;2.78;;;3.20;99.90;;;;;;4936710;29;20055;-78
2022/02/11 05:59:01;;;;;;;3.22;2.92;;;3.20;99.90;;;;;;4929622;29;20412;-77
2022/02/11 06:01:26;;;;;;;2.70;2.50;;;3.20;99.90;;;;;;4931214;29;20114;-77
2022/02/11 06:03:52;;;;;;;6.10;3.75;;;3.20;99.90;;;;;;4936225;29;20031;-78
2022/02/11 06:06:17;;;;;;;3.40;3.10;;;3.30;99.90;;;;;;4935149;29;20044;-78
2022/02/11 06:08:43;;;;;;;3.72;3.42;;;3.30;99.90;;;;;;4935687;29;20024;-78
2022/02/11 06:11:09;;;;;;;3.20;2.97;;;3.30;99.90;;;;;;4927735;29;20040;-77
2022/02/11 06:13:34;;;;;;;3.47;3.17;;;3.30;99.90;;;;;;4932858;29;20098;-78
2022/02/11 06:16:00;;;;;;;3.60;3.30;;;3.30;99.90;;;;;;4937581;29;20031;-78
2022/02/11 06:18:27;;;;;;;5.63;3.78;;;3.30;99.90;;;;;;4934483;29;20027;-76
2022/02/11 06:20:52;;;;;;;4.57;3.70;;;3.30;99.90;;;;;;4930208;29;20112;-77
2022/02/11 06:23:18;;;;;;;5.35;4.15;;;3.30;99.90;;;;;;4929273;29;20068;-78
2022/02/11 06:25:43;;;;;;;5.32;4.40;;;3.30;99.90;;;;;;4932834;29;20456;-77
2022/02/11 06:28:11;;;;;;;5.18;3.53;;;3.30;99.90;;;;;;4939310;29;20457;-79
2022/02/11 06:30:37;;;;;;;4.40;4.00;;;3.20;99.90;;;;;;4930921;29;20090;-78
2022/02/11 06:33:03;;;;;;;4.63;3.45;;;3.10;99.90;;;;;;4937026;29;20638;-78
2022/02/11 06:35:34;;;;;;;5.20;3.75;;;3.00;99.90;;;;;;4936628;29;20059;-78
2022/02/11 06:37:59;;;;;;;;;;;3.00;99.90;;;;;;4939036;29;20023;-78
2022/02/11 06:40:29;;;;;;;4.80;4.03;;;3.00;99.90;;;;;;4931307;29;19907;-78
2022/02/11 06:42:55;;;;;;;4.22;3.53;;;3.00;99.90;;;;;;4932922;29;20035;-77
2022/02/11 06:45:20;;;;;;;5.68;4.13;;;2.90;99.90;;;;;;4940031;29;20032;-80
2022/02/11 06:47:46;;;;;;;10.75;5.80;;;2.90;99.90;;;;;;4932157;29;20032;-77
2022/02/11 06:50:11;;;;;;;4.75;4.10;;;2.90;99.90;;;;;;4940108;29;20038;-77
2022/02/11 06:52:37;;;;;;;5.35;4.60;;;2.90;99.90;;;;;;4946314;29;20037;-78
2022/02/11 06:55:03;;;;;;;5.97;4.22;;;3.00;99.90;;;;;;4929717;29;20024;-78
2022/02/11 06:57:29;;;;;;;5.55;4.50;;;2.90;99.90;;;;;;4930625;29;20504;-77
2022/02/11 06:59:55;;;;;;;5.57;5.05;;;2.90;99.90;;;;;;4938390;29;20027;-78
2022/02/11 07:02:20;;;;;;;5.78;4.90;;;2.90;99.90;;;;;;4930338;29;20059;-77
2022/02/11 07:04:47;;;;;;;5.97;4.28;;;2.80;99.90;;;;;;4940180;29;20031;-78
2022/02/11 07:07:13;;;;;;;7.32;4.53;;;2.80;99.90;;;;;;4936570;29;20028;-78
2022/02/11 07:09:39;;;;;;;5.35;4.32;;;2.80;99.90;;;;;;4937069;29;20496;-78
2022/02/11 07:12:05;;;;;;;4.32;3.88;;;2.90;99.90;;;;;;4936693;29;20066;-78
2022/02/11 07:14:30;;;;;;;5.65;4.20;;;2.80;99.90;;;;;;4937791;29;20086;-77
2022/02/11 07:16:56;;;;;;;6.40;4.53;;;2.80;99.90;;;;;;4932947;29;20024;-80
2022/02/11 07:19:21;;;;;;;6.40;4.03;;;2.80;99.90;;;;;;4926757;29;20051;-78
2022/02/11 07:21:47;;;;;;;6.38;4.50;;;2.90;99.90;;;;;;4935667;29;20102;-79
2022/02/11 07:24:16;;;;;;;9.68;4.88;;;3.00;99.90;;;;;;4933992;29;20023;-77
2022/02/11 07:26:41;;;;;;;4.95;4.45;;;3.00;99.90;;;;;;4931182;29;20028;-78
2022/02/11 07:29:07;;;;;;;4.88;4.25;;;3.10;99.90;;;;;;4937448;29;20107;-78
2022/02/11 07:31:32;;;;;;;4.20;3.60;;;3.10;99.90;;;;;;4929376;29;20056;-79
2022/02/11 07:33:58;;;;;;;5.03;4.53;;;3.10;99.90;;;;;;4930692;29;20024;-77
2022/02/11 07:36:24;;;;;;;5.50;4.05;;;3.20;99.90;;;;;;4936981;29;20133;-78
2022/02/11 07:38:50;;;;;;;4.50;3.80;;;3.10;99.90;;;;;;4935102;29;20484;-78
2022/02/11 07:41:17;;;;;;;4.10;3.70;;;3.10;99.90;;;;;;4935987;29;20054;-78
2022/02/11 07:43:45;;;;;;;4.57;4.15;;;3.10;99.90;;;;;;4935036;29;20501;-78
2022/02/11 07:46:11;;;;;;;5.03;3.90;;;3.20;99.90;;;;;;4926877;29;20028;-78
2022/02/11 07:48:36;;;;;;;5.22;3.50;;;3.20;99.90;;;;;;4933964;29;20031;-78
2022/02/11 07:51:02;;;;;;;7.93;4.10;;;3.30;99.90;;;;;;4929547;29;20058;-79
2022/02/11 07:53:29;;;;;;;5.57;3.63;;;3.30;99.90;;;;;;4936676;29;20031;-78
2022/02/11 07:55:54;;;;;;;4.18;3.63;;;3.40;99.90;;;;;;4936321;29;20035;-79
2022/02/11 07:58:24;;;;;;;4.63;3.35;;;3.50;99.90;;;;;;4935833;29;20436;-76
2022/02/11 08:00:49;;;;;;;6.15;3.72;;;3.50;99.90;;;;;;4932297;29;20024;-78
2022/02/11 08:03:15;;;;;;;5.15;3.10;;;3.60;99.90;;;;;;4926574;29;20024;-78
2022/02/11 08:05:43;;;;;;;4.00;3.55;;;3.60;99.90;;;;;;4934810;29;20028;-77
2022/02/11 08:08:09;;;;;;;6.65;4.28;;;3.70;99.90;;;;;;4933209;29;20020;-77
2022/02/11 08:10:34;;;;;;;6.63;4.28;;;3.80;99.90;;;;;;4935678;29;20111;-79
2022/02/11 08:13:00;;;;;;;5.03;3.45;;;3.90;99.90;;;;;;4930053;29;20028;-78
2022/02/11 08:15:26;;;;;;;5.10;4.13;;;4.00;99.90;;;;;;4937524;29;20157;-78
2022/02/11 08:17:51;;;;;;;4.03;2.92;;;4.00;99.90;;;;;;4936357;29;20027;-78
2022/02/11 08:20:17;;;;;;;4.70;3.30;;;4.20;99.90;;;;;;4937760;29;20455;-77
2022/02/11 08:22:42;;;;;;;5.63;3.55;;;4.30;99.90;;;;;;4926707;29;20036;-77
2022/02/11 08:25:08;;;;;;;5.93;2.97;;;4.30;99.90;;;;;;4935673;29;20020;-79
2022/02/11 08:27:33;;;;;;;4.00;2.95;;;4.50;99.90;;;;;;4938229;29;20028;-77
2022/02/11 08:29:59;;;;;;;5.10;2.28;;;4.60;99.90;;;;;;4937020;29;20110;-77
2022/02/11 08:32:25;;;;;;;4.57;3.13;;;4.60;99.90;;;;;;4945637;29;20024;-78
2022/02/11 08:34:50;;;;;;;9.80;3.28;;;4.70;99.90;;;;;;4929501;29;20489;-78
2022/02/11 08:37:16;;;;;;;5.10;3.72;;;4.70;99.90;;;;;;4929047;29;20547;-78
2022/02/11 08:39:42;;;;;;;4.03;2.83;;;4.80;99.90;;;;;;4936248;29;20063;-79
2022/02/11 08:42:08;;;;;;;5.18;3.03;;;4.90;99.90;;;;;;4935461;29;20028;-76
2022/02/11 08:44:35;;;;;;;4.05;2.35;;;4.70;99.90;;;;;;4928349;29;20024;-79
2022/02/11 08:47:01;;;;;;;5.07;2.40;;;4.60;99.90;;;;;;4929117;29;20039;-79
2022/02/11 08:49:26;;;;;;;3.88;2.22;;;4.50;99.90;;;;;;4935906;29;20032;-77
2022/02/11 08:51:52;;;;;;;7.90;2.70;;;4.50;99.90;;;;;;4936050;29;20114;-79
2022/02/11 08:54:17;;;;;;;4.30;1.90;;;4.50;99.90;;;;;;4933640;29;20067;-77
2022/02/11 08:56:43;;;;;;;5.53;2.75;;;4.50;99.90;;;;;;4924865;29;20024;-78
2022/02/11 08:59:09;;;;;;;7.68;2.22;;;4.60;99.90;;;;;;4932941;29;20444;-79
2022/02/11 09:01:35;;;;;;;6.22;2.38;;;4.70;99.90;;;;;;4939745;29;20401;-78
2022/02/11 09:04:00;;;;;;;5.75;2.30;;;4.80;99.90;;;;;;4931545;29;20039;-78
2022/02/11 09:06:26;;;;;;;5.95;2.65;;;4.80;99.90;;;;;;4937722;29;20031;-77
2022/02/11 09:08:52;;;;;;;7.35;2.47;;;4.80;99.90;;;;;;4937250;29;20031;-79
2022/02/11 09:11:20;;;;;;;4.78;2.28;;;4.60;99.90;;;;;;4934015;29;20635;-78
2022/02/11 09:13:50;;;;;;;4.47;2.38;;;4.70;99.90;;;;;;4931084;29;20020;-79
2022/02/11 09:16:15;;;;;;;4.80;1.90;;;4.80;99.90;;;;;;4955319;29;20008;-77
2022/02/11 09:18:41;;;;;;;6.50;2.35;;;4.90;99.90;;;;;;4965175;28;20027;-83
2022/02/11 09:21:07;;;;;;;5.50;2.00;;;5.10;99.90;;;;;;4959199;28;20024;-83
2022/02/11 09:23:34;;;;;;;4.63;2.55;;;5.20;99.90;;;;;;4960043;28;20015;-83
2022/02/11 09:26:03;;;;;;;6.03;2.20;;;5.30;99.90;;;;;;4955180;28;20068;-85
2022/02/11 09:28:29;;;;;;;6.57;1.80;;;5.40;99.90;;;;;;4956819;28;20008;-84
2022/02/11 09:30:54;;;;;;;3.50;2.00;;;5.40;99.90;;;;;;4959399;28;20043;-84
2022/02/11 09:33:20;;;;;;;4.05;2.05;;;5.40;99.90;;;;;;4959423;28;20083;-83
2022/02/11 09:35:46;;;;;;;7.03;1.65;;;5.50;99.90;;;;;;4961522;28;20020;-83
2022/02/11 09:38:12;;;;;;;4.38;2.70;;;5.50;99.90;;;;;;4958851;28;20044;-84
2022/02/11 09:40:40;;;;;;;2.17;1.85;;;5.60;99.90;;;;;;4951803;28;20032;-87
2022/02/11 09:43:08;;;;;;;2.80;1.85;;;5.60;99.90;;;;;;4943932;29;20028;-84
2022/02/11 09:45:35;;;;;;;7.28;2.13;;;5.60;99.90;;;;;;4944508;28;20135;-85
2022/02/11 09:48:01;;;;;;;4.53;2.13;;;5.80;99.90;;;;;;4958526;29;20027;-84
2022/02/11 09:50:28;;;;;;;4.57;2.50;;;5.80;99.90;;;;;;4965414;28;20024;-83
2022/02/11 09:52:54;;;;;;;5.57;2.20;;;5.80;99.90;;;;;;4963642;28;20028;-83
2022/02/11 09:55:31;;;;;;;3.83;1.55;;;5.90;99.90;;;;;;4964165;28;20114;-84
2022/02/11 09:58:02;;;;;;;5.22;2.60;;;5.60;99.90;;;;;;4963582;28;20054;-84
2022/02/11 10:00:28;;;;;;;3.45;2.22;;;5.50;99.90;;;;;;4964853;28;20047;-84
2022/02/11 10:02:59;;;;;;;3.20;1.90;;;5.50;99.90;;;;;;4965313;28;20023;-84
2022/02/11 10:05:26;;;;;;;3.20;1.73;;;5.70;99.90;;;;;;4953630;28;20056;-85
2022/02/11 10:07:52;;;;;;;3.75;1.85;;;5.80;99.90;;;;;;4953648;29;20063;-86
2022/02/11 10:10:38;;;;;;;2.00;1.30;;;5.80;99.90;;;;;;4949269;29;20050;-83
2022/02/11 10:13:05;;;;;;;4.20;2.35;;;5.90;99.90;;;;;;4939343;29;20043;-82
2022/02/11 10:15:31;;;;;;;4.65;1.60;;;5.90;99.90;;;;;;4946951;29;20028;-83
2022/02/11 10:17:58;;;;;;;3.88;1.40;;;5.70;99.90;;;;;;4945772;29;20042;-81
2022/02/11 10:20:23;;;;;;;3.08;1.63;;;5.80;99.90;;;;;;4942855;29;20091;-83
2022/02/11 10:22:49;;;;;;;2.30;1.50;;;5.90;99.90;;;;;;4944250;29;20027;-82
2022/02/11 10:25:15;;;;;;;4.80;2.03;;;5.90;99.90;;;;;;4943610;29;20087;-83
2022/02/11 10:27:41;;;;;;;6.18;2.58;;;6.00;99.90;;;;;;4944204;29;20032;-83
2022/02/11 10:30:09;;;;;;;3.30;1.65;;;6.20;99.90;;;;;;4945792;29;20095;-82
2022/02/11 10:32:39;;;;;;;5.18;3.03;;;6.30;99.90;;;;;;4946374;29;20051;-82
2022/02/11 10:35:06;;;;;;;6.10;1.88;;;6.50;99.90;;;;;;4947721;29;20031;-83
2022/02/11 10:37:32;;;;;;;5.85;1.80;;;6.50;99.90;;;;;;4945869;29;20032;-84
2022/02/11 10:39:58;;;;;;;6.22;2.67;;;6.50;99.90;;;;;;4951177;29;20034;-83
2022/02/11 10:42:45;;;;;;;8.00;2.35;;;6.50;99.90;;;;;;4947345;29;20028;-82
2022/02/11 10:45:37;;;;;;;4.22;2.35;;;6.40;99.90;;;;;;4946957;29;20042;-84
2022/02/11 10:48:16;;;;;;;3.72;1.80;;;6.30;99.90;;;;;;4948175;29;20501;-83
2022/02/11 10:50:50;;;;;;;4.85;2.05;;;6.20;99.90;;;;;;4950372;29;20055;-83
2022/02/11 10:53:25;;;;;;;8.98;2.65;;;6.30;99.90;;;;;;4953086;29;20082;-82
2022/02/11 10:55:51;;;;;;;5.38;1.95;;;6.10;99.90;;;;;;4962530;28;20027;-82
2022/02/11 10:58:18;;;;;;;3.60;2.08;;;6.10;99.90;;;;;;4958818;28;20044;-76
2022/02/11 11:00:45;;;;;;;4.57;2.22;;;6.10;99.90;;;;;;4955651;28;20099;-82
2022/02/11 11:03:11;;;;;;;5.90;2.08;;;6.10;99.90;;;;;;4953369;29;20032;-82
2022/02/11 11:05:42;;;;;;;2.80;1.90;;;6.20;99.90;;;;;;4950261;29;20019;-83
2022/02/11 11:08:10;;;;;;;5.65;1.80;;;6.40;99.90;;;;;;4949042;28;20023;-80
2022/02/11 11:10:39;;;;;;;7.18;2.33;;;6.40;99.90;;;;;;4933285;29;20034;-77
2022/02/11 11:13:09;;;;;;;4.68;1.70;;;6.70;99.90;;;;;;4937982;29;20034;-77
2022/02/11 11:15:35;;;;;;;6.28;2.50;;;6.90;99.90;;;;;;4938518;29;20496;-78
2022/02/11 11:18:08;;;;;;;6.43;2.28;;;7.00;99.90;;;;;;4939751;29;20039;-77
2022/02/11 11:20:35;;;;;;;5.40;2.25;;;7.10;99.90;;;;;;4943898;29;20026;-77
2022/02/11 11:23:08;;;;;;;3.83;2.03;;;7.10;99.90;;;;;;4936335;29;20020;-77
2022/02/11 11:26:06;;;;;;;3.58;2.38;;;6.90;99.90;;;;;;4938155;29;20501;-80
2022/02/11 11:28:46;;;;;;;2.92;1.83;;;6.80;99.90;;;;;;4926249;29;20046;-79
2022/02/11 11:31:17;;;;;;;4.10;2.05;;;6.80;99.90;;;;;;4936578;29;20393;-78
2022/02/11 11:33:43;;;;;;;;;;;6.60;99.90;;;;;;4938506;29;20027;-78
2022/02/11 11:36:11;;;;;;;5.72;2.08;;;6.70;99.90;;;;;;4940069;29;20352;-79
2022/02/11 11:38:43;;;;;;;2.63;1.85;;;6.70;99.90;;;;;;4938055;29;20126;-79
2022/02/11 11:41:28;;;;;;;4.85;1.80;;;6.60;99.90;;;;;;4938717;29;20035;-78
2022/02/11 11:44:00;;;;;;;3.63;2.10;;;6.70;99.90;;;;;;4931948;29;20055;-79
2022/02/11 11:46:29;;;;;;;4.35;2.67;;;6.70;99.90;;;;;;4939805;29;20028;-79
2022/02/11 11:48:54;;;;;;;4.18;2.00;;;6.80;99.90;;;;;;4938090;29;20023;-79
2022/02/11 11:51:22;;;;;;;2.50;1.42;;;6.70;99.90;;;;;;4938902;29;20047;-80
2022/02/11 11:53:48;;;;;;;3.92;1.92;;;6.60;99.90;;;;;;4937278;29;20028;-78
2022/02/11 11:56:32;;;;;;;2.53;1.50;;;6.60;99.90;;;;;;4939363;29;20023;-78
2022/02/11 11:59:16;;;;;;;2.88;1.42;;;6.40;99.90;;;;;;4933099;29;20035;-80
2022/02/11 12:02:07;;;;;;;2.83;1.58;;;6.30;99.90;;;;;;4931069;28;20028;-77
2022/02/11 12:04:42;;;;;;;3.72;1.75;;;6.50;99.90;;;;;;4932895;29;20034;-77
2022/02/11 12:07:14;;;;;;;3.58;1.10;;;6.60;99.90;;;;;;4935977;29;20050;-78
2022/02/11 12:09:42;;;;;;;2.42;1.58;;;6.60;99.90;;;;;;4936502;29;20027;-76
2022/02/11 12:12:08;;;;;;;1.67;1.33;;;6.60;99.90;;;;;;4934872;29;20040;-76
2022/02/11 12:14:39;;;;;;;4.75;1.77;;;6.60;99.90;;;;;;4936365;29;20027;-76
2022/02/11 12:17:06;;;;;;;;;;;6.90;99.90;;;;;;4933881;29;20031;-78
2022/02/11 12:19:33;;;;;;;2.58;1.67;;;7.00;99.90;;;;;;4927592;29;19914;-77
2022/02/11 12:22:00;;;;;;;5.28;3.10;;;7.20;99.90;;;;;;4933750;29;20102;-77
2022/02/11 12:27:20;;;;;;;3.60;1.27;;;7.30;99.90;;;;;;4936467;29;20039;-78
2022/02/11 12:29:50;;;;;;;2.45;1.33;;;7.20;99.90;;;;;;4935239;29;20024;-78
2022/02/11 12:32:17;;;;;;;3.78;1.55;;;7.20;99.90;;;;;;4932380;29;20036;-78
2022/02/11 12:35:04;;;;;;;3.72;1.88;;;7.30;99.90;;;;;;4934651;29;20027;-77
2022/02/11 12:37:31;;;;;;;6.93;2.10;;;7.00;99.90;;;;;;4936169;29;20039;-78
2022/02/11 12:40:13;;;;;;;1.88;1.42;;;7.00;99.90;;;;;;4936571;29;20523;-77
2022/02/11 12:42:42;;;;;;;6.60;1.90;;;7.00;99.90;;;;;;4934689;29;20063;-77
2022/02/11 12:45:10;;;;;;;2.00;1.60;;;7.00;99.90;;;;;;4930006;29;20106;-77
2022/02/11 12:47:37;;;;;;;4.20;1.42;;;6.90;99.90;;;;;;4943041;28;20052;-79
2022/02/11 12:50:04;;;;;;;4.15;1.48;;;7.00;99.90;;;;;;4935259;29;20031;-77
2022/02/11 12:52:34;;;;;;;2.38;1.60;;;7.10;99.90;;;;;;4935400;29;20496;-78
2022/02/11 12:55:14;;;;;;;7.97;1.75;;;7.10;99.90;;;;;;4936478;29;20511;-77
2022/02/11 12:57:45;;;;;;;3.38;1.63;;;6.90;99.90;;;;;;4935642;29;20042;-77
2022/02/11 13:00:20;;;;;;;3.03;1.90;;;6.90;99.90;;;;;;4931920;29;20049;-77
2022/02/11 13:02:50;;;;;;;4.20;2.10;;;7.30;99.90;;;;;;4933728;29;20028;-79
2022/02/11 13:05:20;;;;;;;3.05;1.38;;;7.20;99.90;;;;;;4935560;29;20036;-77
2022/02/11 13:07:49;;;;;;;7.20;2.03;;;7.10;99.90;;;;;;4939104;29;20024;-77
2022/02/11 13:10:35;;;;;;;5.75;2.15;;;7.00;99.90;;;;;;4939506;29;20032;-78
2022/02/11 13:13:03;;;;;;;5.78;1.50;;;7.00;99.90;;;;;;4942871;29;20046;-78
2022/02/11 13:15:33;;;;;;;8.73;2.03;;;6.90;99.90;;;;;;4941509;29;20023;-76
2022/02/11 13:18:14;;;;;;;1.80;1.55;;;6.90;99.90;;;;;;4941473;29;20031;-78
2022/02/11 13:20:45;;;;;;;3.72;2.10;;;6.70;99.90;;;;;;4938502;29;20028;-78
2022/02/11 13:23:13;;;;;;;6.40;1.80;;;6.80;99.90;;;;;;4936160;29;20020;-77
2022/02/11 13:25:39;;;;;;;5.75;3.40;;;6.40;99.90;;;;;;4938417;29;20396;-77
2022/02/11 13:28:10;;;;;;;4.63;1.90;;;6.40;99.90;;;;;;4935310;29;20028;-78
2022/02/11 13:30:44;;;;;;;5.07;1.70;;;6.50;99.90;;;;;;4936432;29;20119;-78
2022/02/11 13:33:25;;;;;;;4.65;2.03;;;6.70;99.90;;;;;;4934783;29;20126;-77
2022/02/11 13:35:53;;;;;;;3.75;1.67;;;6.70;99.90;;;;;;4933717;29;20028;-79
2022/02/11 13:38:24;;;;;;;2.28;1.60;;;6.80;99.90;;;;;;4931814;29;20047;-78
2022/02/11 13:40:56;;;;;;;3.25;1.52;;;6.70;99.90;;;;;;4930292;29;20020;-78
2022/02/11 13:43:22;;;;;;;3.58;1.80;;;6.50;99.90;;;;;;4932398;29;20107;-79
2022/02/11 13:45:54;;;;;;;4.75;2.10;;;6.60;99.90;;;;;;4944613;28;20055;-79
2022/02/11 13:48:21;;;;;;;4.00;1.60;;;6.60;99.90;;;;;;4932346;29;20044;-78
2022/02/11 13:51:05;;;;;;;4.68;1.40;;;6.50;99.90;;;;;;4934796;29;20495;-78
2022/02/11 13:53:48;;;;;;;3.20;1.63;;;6.50;99.90;;;;;;4933170;29;21415;-77
2022/02/11 13:56:17;;;;;;;2.95;2.00;;;6.30;99.90;;;;;;4928407;29;20043;-78
2022/02/11 13:59:03;;;;;;;6.40;1.80;;;6.40;99.90;;;;;;4934454;29;20032;-78
2022/02/11 14:01:30;;;;;;;7.63;2.55;;;6.20;99.90;;;;;;4915790;29;20063;-78
2022/02/11 14:04:12;;;;;;;4.90;1.98;;;6.30;99.90;;;;;;4924482;29;20031;-78
2022/02/11 14:06:54;;;;;;;4.10;1.73;;;6.30;99.90;;;;;;4934534;29;20031;-78
2022/02/11 14:09:35;;;;;;;7.57;1.90;;;6.40;99.90;;;;;;4929837;29;20028;-77
2022/02/11 14:12:02;;;;;;;3.35;1.45;;;6.30;99.90;;;;;;4929304;29;20067;-80
2022/02/11 14:14:29;;;;;;;3.70;1.90;;;6.50;99.90;;;;;;4933674;29;20063;-77
2022/02/11 14:16:58;;;;;;;4.47;1.67;;;6.50;99.90;;;;;;4933855;29;20036;-78
2022/02/11 14:19:25;;;;;;;5.68;1.60;;;6.60;99.90;;;;;;4926406;29;20115;-77
2022/02/11 14:21:51;;;;;;;3.28;1.33;;;6.50;99.90;;;;;;4922948;29;20021;-78
2022/02/11 14:24:17;;;;;;;4.97;2.10;;;6.60;99.90;;;;;;4935051;29;20095;-77
2022/02/11 14:26:43;;;;;;;3.83;1.55;;;6.80;99.90;;;;;;4927444;29;20047;-78
2022/02/11 14:29:08;;;;;;;4.88;1.48;;;6.80;99.90;;;;;;4935330;29;20103;-77
2022/02/11 14:31:34;;;;;;;5.00;1.60;;;6.80;99.90;;;;;;4925972;29;20032;-77
2022/02/11 14:34:00;;;;;;;2.15;1.15;;;6.90;99.90;;;;;;4928522;29;20452;-78
2022/02/11 14:36:25;;;;;;;4.65;1.90;;;7.00;99.90;;;;;;4931121;29;20115;-79
2022/02/11 14:38:51;;;;;;;3.25;1.33;;;7.10;99.90;;;;;;4937350;29;20028;-77
2022/02/11 14:44:02;;;;;;;3.55;1.85;;;6.90;99.90;;;;;;4938159;29;20095;-77
2022/02/11 14:46:28;;;;;;;3.53;2.08;;;6.80;99.90;;;;;;4944446;29;20035;-76
2022/02/11 14:48:54;;;;;;;3.85;1.67;;;6.70;99.90;;;;;;4936642;29;20028;-78
2022/02/11 14:51:20;;;;;;;3.28;1.77;;;6.60;99.90;;;;;;4938041;29;20024;-76
2022/02/11 14:53:46;;;;;;;3.60;1.45;;;6.70;99.90;;;;;;4926032;29;20020;-77
2022/02/11 14:56:12;;;;;;;1.95;1.52;;;6.70;99.90;;;;;;4928332;29;20032;-77
2022/02/11 14:58:37;;;;;;;3.03;1.58;;;6.80;99.90;;;;;;4937936;29;20103;-79
2022/02/11 15:01:06;;;;;;;4.90;2.00;;;6.80;99.90;;;;;;4930153;29;20491;-78
2022/02/11 15:03:34;;;;;;;4.15;1.83;;;6.80;99.90;;;;;;4938730;29;20114;-77
2022/02/11 15:06:00;;;;;;;2.80;1.30;;;6.60;99.90;;;;;;4932043;29;20023;-78
2022/02/11 15:08:25;;;;;;;6.32;2.10;;;6.60;99.90;;;;;;4930875;29;20030;-80
2022/02/11 15:10:51;;;;;;;5.35;1.55;;;6.60;99.90;;;;;;4932888;29;20151;-78
2022/02/11 15:13:16;;;;;;;3.40;2.17;;;6.60;99.90;;;;;;4937472;29;20043;-78
2022/02/11 15:15:42;;;;;;;6.78;2.25;;;6.60;99.90;;;;;;4952613;28;20037;-78
2022/02/11 15:18:08;;;;;;;4.05;1.60;;;6.60;99.90;;;;;;4933003;29;20038;-76
2022/02/11 15:20:38;;;;;;;4.20;1.40;;;6.60;99.90;;;;;;4933865;29;20392;-78
2022/02/11 15:23:04;;;;;;;4.57;1.95;;;6.50;99.90;;;;;;4931225;29;20481;-78
2022/02/11 15:25:30;;;;;;;6.53;1.60;;;6.40;99.90;;;;;;4938859;29;20032;-78
2022/02/11 15:27:56;;;;;;;4.18;2.05;;;6.30;99.90;;;;;;4933582;29;20028;-76
2022/02/11 15:30:22;;;;;;;7.88;1.55;;;6.30;99.90;;;;;;4935798;29;20124;-77
2022/02/11 15:32:48;;;;;;;3.80;1.45;;;6.30;99.90;;;;;;4940646;29;20031;-76
2022/02/11 15:35:13;;;;;;;4.53;1.55;;;6.20;99.90;;;;;;4928849;29;20500;-77
2022/02/11 15:37:39;;;;;;;3.63;1.55;;;6.20;99.90;;;;;;4938050;29;20028;-77
2022/02/11 15:40:06;;;;;;;3.90;1.73;;;6.20;99.90;;;;;;4937350;29;20020;-77
2022/02/11 15:42:33;;;;;;;3.85;2.20;;;6.20;99.90;;;;;;4927973;29;20063;-76
2022/02/11 15:44:59;;;;;;;2.63;1.65;;;6.20;99.90;;;;;;4933334;29;20020;-77
2022/02/11 15:47:25;;;;;;;4.93;2.00;;;6.20;99.90;;;;;;4933788;29;20027;-77
2022/02/11 15:49:52;;;;;;;5.25;2.30;;;6.20;99.90;;;;;;4936064;29;20031;-79
2022/02/11 15:52:18;;;;;;;4.28;1.67;;;6.20;99.90;;;;;;4937395;29;20032;-77
2022/02/11 15:54:44;;;;;;;7.28;1.88;;;6.10;99.90;;;;;;4927133;29;20028;-78
2022/02/11 15:57:10;;;;;;;4.88;1.73;;;6.10;99.90;;;;;;4933409;29;20115;-78
2022/02/11 15:59:36;;;;;;;2.47;1.85;;;6.10;99.90;;;;;;4937306;29;20055;-76
2022/02/11 16:02:02;;;;;;;4.47;1.73;;;6.10;99.90;;;;;;4929773;29;20020;-77
2022/02/11 16:04:32;;;;;;;6.05;2.97;;;6.10;99.90;;;;;;4927067;29;20037;-79
2022/02/11 16:06:57;;;;;;;5.38;1.50;;;6.10;99.90;;;;;;4936236;29;20038;-76
2022/02/11 16:09:23;;;;;;;5.85;1.98;;;6.00;99.90;;;;;;4932985;29;20035;-79
2022/02/11 16:11:49;;;;;;;2.97;1.73;;;6.10;99.90;;;;;;4935821;29;20083;-80
2022/02/11 16:14:16;;;;;;;4.35;1.80;;;6.00;99.90;;;;;;4935259;29;20074;-80
2022/02/11 16:16:43;;;;;;;5.05;1.67;;;6.00;99.90;;;;;;4939396;29;20039;-79
2022/02/11 16:19:08;;;;;;;3.30;1.60;;;6.00;99.90;;;;;;4929984;29;20366;-81
2022/02/11 16:21:34;;;;;;;5.32;2.20;;;6.00;99.90;;;;;;4930480;29;20062;-78
2022/02/11 16:24:00;;;;;;;5.05;1.88;;;5.90;99.90;;;;;;4935671;29;20051;-79
2022/02/11 16:26:25;;;;;;;6.15;2.03;;;6.00;99.90;;;;;;4941350;29;20111;-81
2022/02/11 16:28:51;;;;;;;5.30;2.17;;;5.90;99.90;;;;;;4927776;29;20522;-79
2022/02/11 16:31:24;;;;;;;7.10;1.92;;;5.90;99.90;;;;;;4934039;29;20039;-79
2022/02/11 16:33:52;;;;;;;4.20;1.55;;;6.00;99.90;;;;;;4925738;29;20030;-78
2022/02/11 16:36:19;;;;;;;9.85;2.17;;;6.00;99.90;;;;;;4930594;28;20468;-78
2022/02/11 16:38:45;;;;;;;4.60;2.30;;;5.90;99.90;;;;;;4930810;29;20028;-79
2022/02/11 16:41:12;;;;;;;8.52;2.67;;;5.50;99.90;;;;;;4929704;29;20039;-76
2022/02/11 16:43:38;;;;;;;4.80;2.92;;;5.20;1.00;;;;;;4934108;29;20019;-77
2022/02/11 16:46:04;;;;;;;5.32;2.40;;;5.00;99.90;;;;;;4933289;29;20385;-78
2022/02/11 16:48:31;;;;;;;7.43;2.67;;;4.70;99.90;;;;;;4931135;29;20451;-78
2022/02/11 16:50:56;;;;;;;4.57;2.50;;;4.40;99.90;;;;;;4924678;29;20165;-79